sensor_id;sensor_type;location;lat;lon;timestamp;P1;durP1;ratioP1;P2;durP2;ratioP2
72904;SDS011;61048;52.162;4.516;2023-02-17T00:01:24;6.53;;;2.03;;
72904;SDS011;61048;52.162;4.516;2023-02-17T00:03:53;7.80;;;3.08;;
72904;SDS011;61048;52.162;4.516;2023-02-17T00:06:21;4.88;;;2.20;;
72904;SDS011;61048;52.162;4.516;2023-02-17T00:08:50;5.90;;;2.00;;
72904;SDS011;61048;52.162;4.516;2023-02-17T00:11:17;4.38;;;2.35;;
72904;SDS011;61048;52.162;4.516;2023-02-17T00:13:44;5.47;;;2.03;;
72904;SDS011;61048;52.162;4.516;2023-02-17T00:16:14;5.22;;;2.03;;
72904;SDS011;61048;52.162;4.516;2023-02-17T00:18:43;5.90;;;2.42;;
72904;SDS011;61048;52.162;4.516;2023-02-17T00:21:12;5.15;;;2.13;;
72904;SDS011;61048;52.162;4.516;2023-02-17T00:23:40;6.22;;;2.28;;
72904;SDS011;61048;52.162;4.516;2023-02-17T00:26:07;5.97;;;2.53;;
72904;SDS011;61048;52.162;4.516;2023-02-17T00:28:34;7.55;;;2.50;;
72904;SDS011;61048;52.162;4.516;2023-02-17T00:31:04;6.10;;;2.67;;
72904;SDS011;61048;52.162;4.516;2023-02-17T00:33:32;7.57;;;2.97;;
72904;SDS011;61048;52.162;4.516;2023-02-17T00:36:01;6.55;;;2.85;;
72904;SDS011;61048;52.162;4.516;2023-02-17T00:38:30;7.25;;;2.80;;
72904;SDS011;61048;52.162;4.516;2023-02-17T00:40:57;8.20;;;3.33;;
72904;SDS011;61048;52.162;4.516;2023-02-17T00:43:23;6.47;;;2.40;;
72904;SDS011;61048;52.162;4.516;2023-02-17T00:45:50;7.90;;;3.22;;
72904;SDS011;61048;52.162;4.516;2023-02-17T00:48:17;5.93;;;2.85;;
72904;SDS011;61048;52.162;4.516;2023-02-17T00:50:44;8.70;;;3.20;;
72904;SDS011;61048;52.162;4.516;2023-02-17T00:53:12;5.43;;;2.67;;
72904;SDS011;61048;52.162;4.516;2023-02-17T00:55:40;8.38;;;3.08;;
72904;SDS011;61048;52.162;4.516;2023-02-17T00:58:07;6.53;;;2.92;;
72904;SDS011;61048;52.162;4.516;2023-02-17T01:00:34;7.88;;;3.53;;
72904;SDS011;61048;52.162;4.516;2023-02-17T01:03:01;6.80;;;2.90;;
72904;SDS011;61048;52.162;4.516;2023-02-17T01:05:28;7.03;;;3.03;;
72904;SDS011;61048;52.162;4.516;2023-02-17T01:07:55;7.32;;;3.15;;
72904;SDS011;61048;52.162;4.516;2023-02-17T01:10:22;6.40;;;3.10;;
72904;SDS011;61048;52.162;4.516;2023-02-17T01:12:50;6.43;;;3.28;;
72904;SDS011;61048;52.162;4.516;2023-02-17T01:15:17;7.43;;;3.22;;
72904;SDS011;61048;52.162;4.516;2023-02-17T01:17:44;6.68;;;3.28;;
72904;SDS011;61048;52.162;4.516;2023-02-17T01:20:11;8.10;;;3.20;;
72904;SDS011;61048;52.162;4.516;2023-02-17T01:22:38;6.25;;;3.10;;
72904;SDS011;61048;52.162;4.516;2023-02-17T01:25:06;6.15;;;3.40;;
72904;SDS011;61048;52.162;4.516;2023-02-17T01:27:33;7.78;;;3.63;;
72904;SDS011;61048;52.162;4.516;2023-02-17T01:30:02;6.22;;;3.08;;
72904;SDS011;61048;52.162;4.516;2023-02-17T01:32:30;6.35;;;3.55;;
72904;SDS011;61048;52.162;4.516;2023-02-17T01:34:57;7.78;;;3.85;;
72904;SDS011;61048;52.162;4.516;2023-02-17T01:37:24;6.93;;;3.40;;
72904;SDS011;61048;52.162;4.516;2023-02-17T01:39:51;6.95;;;3.25;;
72904;SDS011;61048;52.162;4.516;2023-02-17T01:42:18;8.18;;;3.38;;
72904;SDS011;61048;52.162;4.516;2023-02-17T01:47:53;5.75;;;2.85;;
72904;SDS011;61048;52.162;4.516;2023-02-17T01:50:25;7.13;;;3.03;;
72904;SDS011;61048;52.162;4.516;2023-02-17T01:52:56;6.13;;;2.67;;
72904;SDS011;61048;52.162;4.516;2023-02-17T01:55:25;5.47;;;2.97;;
72904;SDS011;61048;52.162;4.516;2023-02-17T01:57:52;8.13;;;3.00;;
72904;SDS011;61048;52.162;4.516;2023-02-17T02:00:25;8.60;;;3.60;;
72904;SDS011;61048;52.162;4.516;2023-02-17T02:02:53;5.78;;;3.13;;
72904;SDS011;61048;52.162;4.516;2023-02-17T02:05:21;6.35;;;3.25;;
72904;SDS011;61048;52.162;4.516;2023-02-17T02:07:48;7.28;;;3.28;;
72904;SDS011;61048;52.162;4.516;2023-02-17T02:10:17;8.48;;;3.80;;
72904;SDS011;61048;52.162;4.516;2023-02-17T02:12:44;7.65;;;3.70;;
72904;SDS011;61048;52.162;4.516;2023-02-17T02:15:12;8.48;;;3.40;;
72904;SDS011;61048;52.162;4.516;2023-02-17T02:17:44;8.15;;;3.13;;
72904;SDS011;61048;52.162;4.516;2023-02-17T02:20:32;6.60;;;2.60;;
72904;SDS011;61048;52.162;4.516;2023-02-17T02:29:26;5.93;;;2.70;;
72904;SDS011;61048;52.162;4.516;2023-02-17T02:32:18;8.30;;;2.95;;
72904;SDS011;61048;52.162;4.516;2023-02-17T02:34:53;6.93;;;3.13;;
72904;SDS011;61048;52.162;4.516;2023-02-17T02:37:25;6.47;;;2.72;;
72904;SDS011;61048;52.162;4.516;2023-02-17T02:39:59;6.78;;;2.70;;
72904;SDS011;61048;52.162;4.516;2023-02-17T02:42:28;7.10;;;2.97;;
72904;SDS011;61048;52.162;4.516;2023-02-17T02:44:55;8.18;;;3.65;;
72904;SDS011;61048;52.162;4.516;2023-02-17T02:50:14;7.40;;;3.03;;
72904;SDS011;61048;52.162;4.516;2023-02-17T02:52:46;5.55;;;2.75;;
72904;SDS011;61048;52.162;4.516;2023-02-17T02:55:24;5.10;;;2.78;;
72904;SDS011;61048;52.162;4.516;2023-02-17T02:58:01;7.53;;;3.30;;
72904;SDS011;61048;52.162;4.516;2023-02-17T03:00:32;7.80;;;3.25;;
72904;SDS011;61048;52.162;4.516;2023-02-17T03:03:09;6.65;;;2.85;;
72904;SDS011;61048;52.162;4.516;2023-02-17T03:05:44;6.68;;;2.90;;
72904;SDS011;61048;52.162;4.516;2023-02-17T03:08:19;7.13;;;3.42;;
72904;SDS011;61048;52.162;4.516;2023-02-17T03:10:52;7.32;;;3.55;;
72904;SDS011;61048;52.162;4.516;2023-02-17T03:13:20;7.03;;;3.17;;
72904;SDS011;61048;52.162;4.516;2023-02-17T03:15:47;6.38;;;2.92;;
72904;SDS011;61048;52.162;4.516;2023-02-17T03:18:16;10.50;;;3.35;;
72904;SDS011;61048;52.162;4.516;2023-02-17T03:20:44;7.78;;;3.33;;
72904;SDS011;61048;52.162;4.516;2023-02-17T03:23:16;8.15;;;2.65;;
72904;SDS011;61048;52.162;4.516;2023-02-17T03:25:43;8.93;;;3.17;;
72904;SDS011;61048;52.162;4.516;2023-02-17T03:28:11;7.15;;;3.05;;
72904;SDS011;61048;52.162;4.516;2023-02-17T03:30:38;7.60;;;3.05;;
72904;SDS011;61048;52.162;4.516;2023-02-17T03:33:05;8.75;;;3.50;;
72904;SDS011;61048;52.162;4.516;2023-02-17T03:35:34;8.13;;;3.13;;
72904;SDS011;61048;52.162;4.516;2023-02-17T03:38:01;7.18;;;3.03;;
72904;SDS011;61048;52.162;4.516;2023-02-17T03:40:29;7.97;;;3.30;;
72904;SDS011;61048;52.162;4.516;2023-02-17T03:42:56;9.25;;;3.67;;
72904;SDS011;61048;52.162;4.516;2023-02-17T03:45:23;8.10;;;3.30;;
72904;SDS011;61048;52.162;4.516;2023-02-17T03:47:50;6.82;;;3.15;;
72904;SDS011;61048;52.162;4.516;2023-02-17T03:50:17;7.47;;;2.92;;
72904;SDS011;61048;52.162;4.516;2023-02-17T03:52:45;6.65;;;3.15;;
72904;SDS011;61048;52.162;4.516;2023-02-17T03:55:12;8.65;;;3.17;;
72904;SDS011;61048;52.162;4.516;2023-02-17T03:57:39;7.05;;;3.30;;
72904;SDS011;61048;52.162;4.516;2023-02-17T04:00:06;11.77;;;3.65;;
72904;SDS011;61048;52.162;4.516;2023-02-17T04:02:34;8.15;;;2.95;;
72904;SDS011;61048;52.162;4.516;2023-02-17T04:05:01;8.65;;;3.35;;
72904;SDS011;61048;52.162;4.516;2023-02-17T04:07:28;11.70;;;3.97;;
72904;SDS011;61048;52.162;4.516;2023-02-17T04:09:56;10.30;;;3.22;;
72904;SDS011;61048;52.162;4.516;2023-02-17T04:12:23;7.10;;;3.20;;
72904;SDS011;61048;52.162;4.516;2023-02-17T04:14:50;11.40;;;3.10;;
72904;SDS011;61048;52.162;4.516;2023-02-17T04:17:17;8.60;;;3.13;;
72904;SDS011;61048;52.162;4.516;2023-02-17T04:19:44;8.85;;;3.25;;
72904;SDS011;61048;52.162;4.516;2023-02-17T04:22:11;9.80;;;2.83;;
72904;SDS011;61048;52.162;4.516;2023-02-17T04:24:38;10.65;;;3.55;;
72904;SDS011;61048;52.162;4.516;2023-02-17T04:27:06;8.30;;;3.38;;
72904;SDS011;61048;52.162;4.516;2023-02-17T04:29:34;8.93;;;2.95;;
72904;SDS011;61048;52.162;4.516;2023-02-17T04:32:00;8.77;;;3.25;;
72904;SDS011;61048;52.162;4.516;2023-02-17T04:34:27;9.52;;;3.00;;
72904;SDS011;61048;52.162;4.516;2023-02-17T04:36:54;8.95;;;3.20;;
72904;SDS011;61048;52.162;4.516;2023-02-17T04:39:21;7.78;;;2.80;;
72904;SDS011;61048;52.162;4.516;2023-02-17T04:41:48;8.05;;;2.60;;
72904;SDS011;61048;52.162;4.516;2023-02-17T04:44:16;10.98;;;2.88;;
72904;SDS011;61048;52.162;4.516;2023-02-17T04:46:43;8.98;;;2.83;;
72904;SDS011;61048;52.162;4.516;2023-02-17T04:49:10;9.35;;;3.35;;
72904;SDS011;61048;52.162;4.516;2023-02-17T04:51:37;11.00;;;3.92;;
72904;SDS011;61048;52.162;4.516;2023-02-17T04:54:04;10.50;;;2.97;;
72904;SDS011;61048;52.162;4.516;2023-02-17T04:56:31;8.43;;;2.80;;
72904;SDS011;61048;52.162;4.516;2023-02-17T04:58:57;12.52;;;3.35;;
72904;SDS011;61048;52.162;4.516;2023-02-17T05:01:26;10.00;;;3.30;;
72904;SDS011;61048;52.162;4.516;2023-02-17T05:03:52;9.82;;;3.58;;
72904;SDS011;61048;52.162;4.516;2023-02-17T05:06:19;8.30;;;3.28;;
72904;SDS011;61048;52.162;4.516;2023-02-17T05:08:46;10.45;;;2.90;;
72904;SDS011;61048;52.162;4.516;2023-02-17T05:11:14;10.05;;;4.35;;
72904;SDS011;61048;52.162;4.516;2023-02-17T05:13:41;9.90;;;3.08;;
72904;SDS011;61048;52.162;4.516;2023-02-17T05:16:08;11.35;;;3.78;;
72904;SDS011;61048;52.162;4.516;2023-02-17T05:18:36;10.93;;;3.35;;
72904;SDS011;61048;52.162;4.516;2023-02-17T05:21:03;13.90;;;3.55;;
72904;SDS011;61048;52.162;4.516;2023-02-17T05:23:31;10.82;;;3.60;;
72904;SDS011;61048;52.162;4.516;2023-02-17T05:25:57;8.27;;;3.13;;
72904;SDS011;61048;52.162;4.516;2023-02-17T05:28:24;11.02;;;4.00;;
72904;SDS011;61048;52.162;4.516;2023-02-17T05:30:51;10.55;;;3.38;;
72904;SDS011;61048;52.162;4.516;2023-02-17T05:33:18;9.23;;;3.20;;
72904;SDS011;61048;52.162;4.516;2023-02-17T05:35:46;10.10;;;4.10;;
72904;SDS011;61048;52.162;4.516;2023-02-17T05:38:14;9.82;;;3.30;;
72904;SDS011;61048;52.162;4.516;2023-02-17T05:40:40;8.25;;;3.55;;
72904;SDS011;61048;52.162;4.516;2023-02-17T05:43:07;10.05;;;3.28;;
72904;SDS011;61048;52.162;4.516;2023-02-17T05:45:34;11.38;;;3.10;;
72904;SDS011;61048;52.162;4.516;2023-02-17T05:48:01;8.73;;;2.55;;
72904;SDS011;61048;52.162;4.516;2023-02-17T05:50:28;11.48;;;3.03;;
72904;SDS011;61048;52.162;4.516;2023-02-17T05:52:56;9.20;;;3.13;;
72904;SDS011;61048;52.162;4.516;2023-02-17T05:55:23;9.48;;;3.47;;
72904;SDS011;61048;52.162;4.516;2023-02-17T05:57:49;48.22;;;10.30;;
72904;SDS011;61048;52.162;4.516;2023-02-17T06:00:16;58.90;;;12.48;;
72904;SDS011;61048;52.162;4.516;2023-02-17T06:02:43;47.05;;;11.80;;
72904;SDS011;61048;52.162;4.516;2023-02-17T06:05:10;58.22;;;12.98;;
72904;SDS011;61048;52.162;4.516;2023-02-17T06:07:37;50.20;;;11.20;;
72904;SDS011;61048;52.162;4.516;2023-02-17T06:10:08;50.72;;;11.23;;
72904;SDS011;61048;52.162;4.516;2023-02-17T06:12:36;44.17;;;11.20;;
72904;SDS011;61048;52.162;4.516;2023-02-17T06:15:03;47.08;;;11.32;;
72904;SDS011;61048;52.162;4.516;2023-02-17T06:17:30;36.55;;;9.82;;
72904;SDS011;61048;52.162;4.516;2023-02-17T06:19:57;39.22;;;9.68;;
72904;SDS011;61048;52.162;4.516;2023-02-17T06:22:24;37.75;;;9.43;;
72904;SDS011;61048;52.162;4.516;2023-02-17T06:24:51;35.15;;;8.40;;
72904;SDS011;61048;52.162;4.516;2023-02-17T06:27:19;30.05;;;8.35;;
72904;SDS011;61048;52.162;4.516;2023-02-17T06:29:46;29.35;;;7.80;;
72904;SDS011;61048;52.162;4.516;2023-02-17T06:32:12;24.30;;;7.22;;
72904;SDS011;61048;52.162;4.516;2023-02-17T06:34:39;28.05;;;6.97;;
72904;SDS011;61048;52.162;4.516;2023-02-17T06:37:06;22.08;;;6.40;;
72904;SDS011;61048;52.162;4.516;2023-02-17T06:39:33;21.48;;;5.95;;
72904;SDS011;61048;52.162;4.516;2023-02-17T06:42:00;24.92;;;6.10;;
72904;SDS011;61048;52.162;4.516;2023-02-17T06:44:28;25.52;;;7.03;;
72904;SDS011;61048;52.162;4.516;2023-02-17T06:46:55;18.80;;;6.13;;
72904;SDS011;61048;52.162;4.516;2023-02-17T06:49:23;16.90;;;4.85;;
72904;SDS011;61048;52.162;4.516;2023-02-17T06:51:50;15.68;;;4.85;;
72904;SDS011;61048;52.162;4.516;2023-02-17T06:54:17;14.48;;;4.68;;
72904;SDS011;61048;52.162;4.516;2023-02-17T06:56:44;13.10;;;4.53;;
72904;SDS011;61048;52.162;4.516;2023-02-17T06:59:11;12.57;;;4.38;;
72904;SDS011;61048;52.162;4.516;2023-02-17T07:01:39;12.23;;;4.15;;
72904;SDS011;61048;52.162;4.516;2023-02-17T07:04:06;12.38;;;4.22;;
72904;SDS011;61048;52.162;4.516;2023-02-17T07:06:33;12.57;;;4.07;;
72904;SDS011;61048;52.162;4.516;2023-02-17T07:09:00;10.82;;;3.40;;
72904;SDS011;61048;52.162;4.516;2023-02-17T07:11:27;11.90;;;3.15;;
72904;SDS011;61048;52.162;4.516;2023-02-17T07:13:56;11.63;;;3.80;;
72904;SDS011;61048;52.162;4.516;2023-02-17T07:16:23;10.85;;;2.70;;
72904;SDS011;61048;52.162;4.516;2023-02-17T07:18:52;11.80;;;3.30;;
72904;SDS011;61048;52.162;4.516;2023-02-17T07:21:19;10.75;;;3.20;;
72904;SDS011;61048;52.162;4.516;2023-02-17T07:23:45;13.68;;;3.78;;
72904;SDS011;61048;52.162;4.516;2023-02-17T07:26:13;13.90;;;3.00;;
72904;SDS011;61048;52.162;4.516;2023-02-17T07:28:40;10.88;;;2.75;;
72904;SDS011;61048;52.162;4.516;2023-02-17T07:31:09;9.98;;;3.10;;
72904;SDS011;61048;52.162;4.516;2023-02-17T07:33:37;15.18;;;3.80;;
72904;SDS011;61048;52.162;4.516;2023-02-17T07:36:07;8.52;;;3.17;;
72904;SDS011;61048;52.162;4.516;2023-02-17T07:38:35;11.65;;;3.05;;
72904;SDS011;61048;52.162;4.516;2023-02-17T07:41:03;12.50;;;3.97;;
72904;SDS011;61048;52.162;4.516;2023-02-17T07:43:31;11.90;;;3.53;;
72904;SDS011;61048;52.162;4.516;2023-02-17T07:45:58;8.93;;;3.05;;
72904;SDS011;61048;52.162;4.516;2023-02-17T07:48:25;9.75;;;3.42;;
72904;SDS011;61048;52.162;4.516;2023-02-17T07:50:52;9.15;;;4.07;;
72904;SDS011;61048;52.162;4.516;2023-02-17T07:53:20;10.00;;;3.42;;
72904;SDS011;61048;52.162;4.516;2023-02-17T07:55:48;9.27;;;3.35;;
72904;SDS011;61048;52.162;4.516;2023-02-17T07:58:14;8.63;;;3.30;;
72904;SDS011;61048;52.162;4.516;2023-02-17T08:00:41;9.07;;;3.47;;
72904;SDS011;61048;52.162;4.516;2023-02-17T08:03:08;6.97;;;3.10;;
72904;SDS011;61048;52.162;4.516;2023-02-17T08:05:37;9.05;;;3.28;;
72904;SDS011;61048;52.162;4.516;2023-02-17T08:08:05;9.27;;;3.47;;
72904;SDS011;61048;52.162;4.516;2023-02-17T08:10:50;12.10;;;3.45;;
72904;SDS011;61048;52.162;4.516;2023-02-17T08:13:34;8.52;;;3.40;;
72904;SDS011;61048;52.162;4.516;2023-02-17T08:16:01;7.85;;;3.13;;
72904;SDS011;61048;52.162;4.516;2023-02-17T08:18:28;8.05;;;3.22;;
72904;SDS011;61048;52.162;4.516;2023-02-17T08:20:55;7.38;;;3.17;;
72904;SDS011;61048;52.162;4.516;2023-02-17T08:23:22;7.75;;;3.38;;
72904;SDS011;61048;52.162;4.516;2023-02-17T08:25:50;8.20;;;3.22;;
72904;SDS011;61048;52.162;4.516;2023-02-17T08:28:17;6.82;;;2.78;;
72904;SDS011;61048;52.162;4.516;2023-02-17T08:30:45;6.75;;;3.17;;
72904;SDS011;61048;52.162;4.516;2023-02-17T08:33:12;5.85;;;2.85;;
72904;SDS011;61048;52.162;4.516;2023-02-17T08:35:42;7.43;;;3.45;;
72904;SDS011;61048;52.162;4.516;2023-02-17T08:38:09;5.60;;;2.17;;
72904;SDS011;61048;52.162;4.516;2023-02-17T08:40:36;6.55;;;2.90;;
72904;SDS011;61048;52.162;4.516;2023-02-17T08:43:05;8.45;;;3.35;;
72904;SDS011;61048;52.162;4.516;2023-02-17T08:45:32;4.60;;;2.72;;
72904;SDS011;61048;52.162;4.516;2023-02-17T08:48:01;7.57;;;2.40;;
72904;SDS011;61048;52.162;4.516;2023-02-17T08:50:28;5.93;;;2.25;;
72904;SDS011;61048;52.162;4.516;2023-02-17T08:52:55;6.20;;;2.25;;
72904;SDS011;61048;52.162;4.516;2023-02-17T08:55:23;5.50;;;2.63;;
72904;SDS011;61048;52.162;4.516;2023-02-17T08:57:50;5.70;;;2.20;;
72904;SDS011;61048;52.162;4.516;2023-02-17T09:00:19;5.25;;;2.03;;
72904;SDS011;61048;52.162;4.516;2023-02-17T09:02:46;6.82;;;2.28;;
72904;SDS011;61048;52.162;4.516;2023-02-17T09:05:13;7.20;;;2.13;;
72904;SDS011;61048;52.162;4.516;2023-02-17T09:07:40;5.38;;;2.40;;
72904;SDS011;61048;52.162;4.516;2023-02-17T09:10:08;6.32;;;2.20;;
72904;SDS011;61048;52.162;4.516;2023-02-17T09:12:36;7.90;;;2.55;;
72904;SDS011;61048;52.162;4.516;2023-02-17T09:15:03;4.75;;;2.17;;
72904;SDS011;61048;52.162;4.516;2023-02-17T09:17:31;7.57;;;2.53;;
72904;SDS011;61048;52.162;4.516;2023-02-17T09:19:58;7.72;;;2.10;;
72904;SDS011;61048;52.162;4.516;2023-02-17T09:22:25;6.78;;;2.75;;
72904;SDS011;61048;52.162;4.516;2023-02-17T09:24:52;9.55;;;2.90;;
72904;SDS011;61048;52.162;4.516;2023-02-17T09:27:19;12.60;;;3.30;;
72904;SDS011;61048;52.162;4.516;2023-02-17T09:29:46;10.75;;;2.60;;
72904;SDS011;61048;52.162;4.516;2023-02-17T09:32:13;8.40;;;2.95;;
72904;SDS011;61048;52.162;4.516;2023-02-17T09:34:41;10.20;;;2.30;;
72904;SDS011;61048;52.162;4.516;2023-02-17T09:37:14;7.38;;;2.45;;
72904;SDS011;61048;52.162;4.516;2023-02-17T09:39:42;7.72;;;2.33;;
72904;SDS011;61048;52.162;4.516;2023-02-17T09:42:09;6.72;;;2.35;;
72904;SDS011;61048;52.162;4.516;2023-02-17T09:44:42;4.90;;;2.28;;
72904;SDS011;61048;52.162;4.516;2023-02-17T09:47:12;7.38;;;2.35;;
72904;SDS011;61048;52.162;4.516;2023-02-17T09:49:46;5.60;;;2.50;;
72904;SDS011;61048;52.162;4.516;2023-02-17T09:52:17;8.50;;;2.30;;
72904;SDS011;61048;52.162;4.516;2023-02-17T09:54:52;6.85;;;2.35;;
72904;SDS011;61048;52.162;4.516;2023-02-17T09:57:28;7.13;;;2.20;;
72904;SDS011;61048;52.162;4.516;2023-02-17T09:59:59;7.43;;;2.13;;
72904;SDS011;61048;52.162;4.516;2023-02-17T10:02:32;5.88;;;2.03;;
72904;SDS011;61048;52.162;4.516;2023-02-17T10:05:07;6.85;;;2.05;;
72904;SDS011;61048;52.162;4.516;2023-02-17T10:07:39;8.50;;;2.60;;
72904;SDS011;61048;52.162;4.516;2023-02-17T10:10:11;7.00;;;1.90;;
72904;SDS011;61048;52.162;4.516;2023-02-17T10:12:43;6.32;;;2.17;;
72904;SDS011;61048;52.162;4.516;2023-02-17T10:15:14;5.88;;;2.38;;
72904;SDS011;61048;52.162;4.516;2023-02-17T10:17:45;6.35;;;2.20;;
72904;SDS011;61048;52.162;4.516;2023-02-17T10:20:18;5.85;;;1.83;;
72904;SDS011;61048;52.162;4.516;2023-02-17T10:22:50;9.02;;;2.38;;
72904;SDS011;61048;52.162;4.516;2023-02-17T10:25:21;6.55;;;2.05;;
72904;SDS011;61048;52.162;4.516;2023-02-17T10:28:00;5.80;;;1.92;;
72904;SDS011;61048;52.162;4.516;2023-02-17T10:30:34;6.65;;;2.70;;
72904;SDS011;61048;52.162;4.516;2023-02-17T10:33:11;5.53;;;1.80;;
72904;SDS011;61048;52.162;4.516;2023-02-17T10:35:46;6.35;;;2.00;;
72904;SDS011;61048;52.162;4.516;2023-02-17T10:38:16;5.72;;;2.35;;
72904;SDS011;61048;52.162;4.516;2023-02-17T10:40:46;6.88;;;2.28;;
72904;SDS011;61048;52.162;4.516;2023-02-17T10:43:19;7.85;;;2.60;;
72904;SDS011;61048;52.162;4.516;2023-02-17T10:45:51;7.05;;;2.05;;
72904;SDS011;61048;52.162;4.516;2023-02-17T10:48:19;7.68;;;2.22;;
72904;SDS011;61048;52.162;4.516;2023-02-17T10:50:50;7.82;;;2.08;;
72904;SDS011;61048;52.162;4.516;2023-02-17T10:53:20;6.32;;;2.13;;
72904;SDS011;61048;52.162;4.516;2023-02-17T10:55:52;7.18;;;2.10;;
72904;SDS011;61048;52.162;4.516;2023-02-17T10:58:24;7.07;;;2.20;;
72904;SDS011;61048;52.162;4.516;2023-02-17T11:00:54;6.00;;;1.67;;
72904;SDS011;61048;52.162;4.516;2023-02-17T11:03:23;6.25;;;2.00;;
72904;SDS011;61048;52.162;4.516;2023-02-17T11:05:54;6.95;;;1.83;;
72904;SDS011;61048;52.162;4.516;2023-02-17T11:08:26;7.53;;;1.75;;
72904;SDS011;61048;52.162;4.516;2023-02-17T11:11:00;5.55;;;1.70;;
72904;SDS011;61048;52.162;4.516;2023-02-17T11:13:31;6.45;;;1.73;;
72904;SDS011;61048;52.162;4.516;2023-02-17T11:16:00;6.93;;;1.73;;
72904;SDS011;61048;52.162;4.516;2023-02-17T11:18:30;7.47;;;1.58;;
72904;SDS011;61048;52.162;4.516;2023-02-17T11:21:05;6.75;;;1.98;;
72904;SDS011;61048;52.162;4.516;2023-02-17T11:23:34;5.65;;;1.33;;
72904;SDS011;61048;52.162;4.516;2023-02-17T11:26:06;8.00;;;2.15;;
72904;SDS011;61048;52.162;4.516;2023-02-17T11:28:35;8.88;;;1.77;;
72904;SDS011;61048;52.162;4.516;2023-02-17T11:31:02;7.00;;;2.22;;
72904;SDS011;61048;52.162;4.516;2023-02-17T11:33:32;6.55;;;1.83;;
72904;SDS011;61048;52.162;4.516;2023-02-17T11:36:01;5.63;;;1.35;;
72904;SDS011;61048;52.162;4.516;2023-02-17T11:38:32;5.88;;;1.40;;
72904;SDS011;61048;52.162;4.516;2023-02-17T11:41:06;8.77;;;1.92;;
72904;SDS011;61048;52.162;4.516;2023-02-17T11:43:35;8.25;;;2.47;;
72904;SDS011;61048;52.162;4.516;2023-02-17T11:46:09;6.78;;;1.35;;
72904;SDS011;61048;52.162;4.516;2023-02-17T11:48:50;9.73;;;1.50;;
72904;SDS011;61048;52.162;4.516;2023-02-17T11:51:45;7.20;;;1.70;;
72904;SDS011;61048;52.162;4.516;2023-02-17T11:54:22;5.95;;;1.42;;
72904;SDS011;61048;52.162;4.516;2023-02-17T11:56:57;9.07;;;1.45;;
72904;SDS011;61048;52.162;4.516;2023-02-17T11:59:34;7.95;;;1.83;;
72904;SDS011;61048;52.162;4.516;2023-02-17T12:02:14;5.97;;;1.10;;
72904;SDS011;61048;52.162;4.516;2023-02-17T12:04:51;7.05;;;1.42;;
72904;SDS011;61048;52.162;4.516;2023-02-17T12:07:40;5.03;;;1.42;;
72904;SDS011;61048;52.162;4.516;2023-02-17T12:10:20;6.43;;;1.42;;
72904;SDS011;61048;52.162;4.516;2023-02-17T12:13:01;7.43;;;1.27;;
72904;SDS011;61048;52.162;4.516;2023-02-17T12:15:45;5.45;;;1.20;;
72904;SDS011;61048;52.162;4.516;2023-02-17T12:18:24;6.90;;;1.60;;
72904;SDS011;61048;52.162;4.516;2023-02-17T12:21:03;6.78;;;1.33;;
72904;SDS011;61048;52.162;4.516;2023-02-17T12:23:45;7.13;;;1.25;;
72904;SDS011;61048;52.162;4.516;2023-02-17T12:26:37;5.95;;;1.13;;
72904;SDS011;61048;52.162;4.516;2023-02-17T12:29:25;9.10;;;1.50;;
72904;SDS011;61048;52.162;4.516;2023-02-17T12:32:02;6.15;;;1.60;;
72904;SDS011;61048;52.162;4.516;2023-02-17T12:34:39;8.57;;;1.77;;
72904;SDS011;61048;52.162;4.516;2023-02-17T12:37:14;8.70;;;1.35;;
72904;SDS011;61048;52.162;4.516;2023-02-17T12:39:47;6.45;;;1.13;;
72904;SDS011;61048;52.162;4.516;2023-02-17T12:44:50;6.35;;;1.35;;
72904;SDS011;61048;52.162;4.516;2023-02-17T12:47:22;9.18;;;1.73;;
72904;SDS011;61048;52.162;4.516;2023-02-17T12:49:55;7.15;;;1.48;;
72904;SDS011;61048;52.162;4.516;2023-02-17T12:52:27;8.73;;;1.52;;
72904;SDS011;61048;52.162;4.516;2023-02-17T12:54:59;8.38;;;1.50;;
72904;SDS011;61048;52.162;4.516;2023-02-17T12:57:33;8.32;;;1.67;;
72904;SDS011;61048;52.162;4.516;2023-02-17T13:00:10;7.55;;;1.83;;
72904;SDS011;61048;52.162;4.516;2023-02-17T13:02:42;8.10;;;1.80;;
72904;SDS011;61048;52.162;4.516;2023-02-17T13:05:13;6.47;;;1.42;;
72904;SDS011;61048;52.162;4.516;2023-02-17T13:07:47;7.90;;;1.70;;
72904;SDS011;61048;52.162;4.516;2023-02-17T13:10:20;7.38;;;1.20;;
72904;SDS011;61048;52.162;4.516;2023-02-17T13:12:56;6.63;;;1.08;;
72904;SDS011;61048;52.162;4.516;2023-02-17T13:15:29;7.47;;;1.40;;
72904;SDS011;61048;52.162;4.516;2023-02-17T13:18:02;6.32;;;1.70;;
72904;SDS011;61048;52.162;4.516;2023-02-17T13:23:27;7.15;;;1.48;;
72904;SDS011;61048;52.162;4.516;2023-02-17T13:29:16;6.88;;;1.27;;
72904;SDS011;61048;52.162;4.516;2023-02-17T13:31:46;5.25;;;1.00;;
72904;SDS011;61048;52.162;4.516;2023-02-17T13:34:22;7.07;;;1.25;;
72904;SDS011;61048;52.162;4.516;2023-02-17T13:36:54;6.40;;;1.10;;
72904;SDS011;61048;52.162;4.516;2023-02-17T13:39:29;4.53;;;1.08;;
72904;SDS011;61048;52.162;4.516;2023-02-17T13:42:00;7.72;;;0.93;;
72904;SDS011;61048;52.162;4.516;2023-02-17T13:44:29;5.30;;;1.40;;
72904;SDS011;61048;52.162;4.516;2023-02-17T13:46:57;7.05;;;1.25;;
72904;SDS011;61048;52.162;4.516;2023-02-17T13:49:27;6.70;;;0.90;;
72904;SDS011;61048;52.162;4.516;2023-02-17T13:52:05;6.43;;;0.82;;
72904;SDS011;61048;52.162;4.516;2023-02-17T13:54:36;8.55;;;1.10;;
72904;SDS011;61048;52.162;4.516;2023-02-17T13:57:20;7.38;;;1.08;;
72904;SDS011;61048;52.162;4.516;2023-02-17T13:59:49;6.30;;;1.13;;
72904;SDS011;61048;52.162;4.516;2023-02-17T14:02:17;10.77;;;1.13;;
72904;SDS011;61048;52.162;4.516;2023-02-17T14:04:47;10.18;;;1.40;;
72904;SDS011;61048;52.162;4.516;2023-02-17T14:07:14;5.22;;;0.90;;
72904;SDS011;61048;52.162;4.516;2023-02-17T14:09:42;5.22;;;0.90;;
72904;SDS011;61048;52.162;4.516;2023-02-17T14:12:18;6.47;;;1.10;;
72904;SDS011;61048;52.162;4.516;2023-02-17T14:14:50;7.35;;;0.93;;
72904;SDS011;61048;52.162;4.516;2023-02-17T14:17:26;7.22;;;1.20;;
72904;SDS011;61048;52.162;4.516;2023-02-17T14:19:54;5.22;;;0.80;;
72904;SDS011;61048;52.162;4.516;2023-02-17T14:22:22;7.85;;;1.10;;
72904;SDS011;61048;52.162;4.516;2023-02-17T14:24:59;6.82;;;0.77;;
72904;SDS011;61048;52.162;4.516;2023-02-17T14:27:27;6.28;;;1.02;;
72904;SDS011;61048;52.162;4.516;2023-02-17T14:29:55;6.95;;;1.05;;
72904;SDS011;61048;52.162;4.516;2023-02-17T14:32:26;7.22;;;0.90;;
72904;SDS011;61048;52.162;4.516;2023-02-17T14:37:31;6.20;;;0.90;;
72904;SDS011;61048;52.162;4.516;2023-02-17T14:40:00;6.97;;;0.90;;
72904;SDS011;61048;52.162;4.516;2023-02-17T14:42:27;3.72;;;0.75;;
72904;SDS011;61048;52.162;4.516;2023-02-17T14:44:56;7.13;;;1.08;;
72904;SDS011;61048;52.162;4.516;2023-02-17T14:47:22;6.10;;;1.05;;
72904;SDS011;61048;52.162;4.516;2023-02-17T14:49:49;3.40;;;0.70;;
72904;SDS011;61048;52.162;4.516;2023-02-17T14:52:17;6.35;;;0.95;;
72904;SDS011;61048;52.162;4.516;2023-02-17T14:54:46;4.03;;;0.70;;
72904;SDS011;61048;52.162;4.516;2023-02-17T14:57:14;8.13;;;0.80;;
72904;SDS011;61048;52.162;4.516;2023-02-17T14:59:41;4.53;;;0.82;;
72904;SDS011;61048;52.162;4.516;2023-02-17T15:02:13;5.85;;;1.40;;
72904;SDS011;61048;52.162;4.516;2023-02-17T15:04:42;5.47;;;0.57;;
72904;SDS011;61048;52.162;4.516;2023-02-17T15:07:10;4.25;;;0.60;;
72904;SDS011;61048;52.162;4.516;2023-02-17T15:09:38;6.85;;;1.00;;
72904;SDS011;61048;52.162;4.516;2023-02-17T15:12:08;5.63;;;0.80;;
72904;SDS011;61048;52.162;4.516;2023-02-17T15:14:39;5.00;;;0.55;;
72904;SDS011;61048;52.162;4.516;2023-02-17T15:17:06;4.70;;;0.93;;
72904;SDS011;61048;52.162;4.516;2023-02-17T15:19:35;3.88;;;0.73;;
72904;SDS011;61048;52.162;4.516;2023-02-17T15:22:01;4.55;;;0.95;;
72904;SDS011;61048;52.162;4.516;2023-02-17T15:24:30;4.32;;;0.50;;